createdAt,value
2023-05-06T00:00:58.677Z,96826.47
2023-05-06T00:03:25.338Z,96826.78
2023-05-06T00:05:52.496Z,96803.78
2023-05-06T00:08:19.028Z,96820.16
2023-05-06T00:10:45.601Z,96812.50
2023-05-06T00:13:12.881Z,96807.47
2023-05-06T00:15:40.527Z,96799.81
2023-05-06T00:18:07.186Z,96809.34
2023-05-06T00:20:33.791Z,96809.59
2023-05-06T00:23:00.576Z,96814.34
2023-05-06T00:25:27.165Z,96806.66
2023-05-06T00:27:53.605Z,96807.16
2023-05-06T00:30:20.133Z,96809.28
2023-05-06T00:32:46.599Z,96807.94
2023-05-06T00:35:13.253Z,96798.41
2023-05-06T00:37:39.705Z,96805.84
2023-05-06T00:40:07.207Z,96806.63
2023-05-06T00:42:34.473Z,96800.84
2023-05-06T00:45:01.296Z,96804.00
2023-05-06T00:47:27.899Z,96800.59
2023-05-06T00:49:54.417Z,96799.25
2023-05-06T00:52:21.005Z,96800.50
2023-05-06T00:54:47.460Z,96801.84
2023-05-06T00:57:14.165Z,96774.38
2023-05-06T00:59:40.837Z,96772.00
2023-05-06T01:02:07.421Z,96787.41
2023-05-06T01:04:33.870Z,96789.50
2023-05-06T01:07:07.181Z,96784.75
2023-05-06T01:09:41.892Z,96789.19
2023-05-06T01:12:30.661Z,96792.59
2023-05-06T01:15:08.614Z,96787.63
2023-05-06T01:17:45.895Z,96793.41
2023-05-06T01:20:15.113Z,96786.09
2023-05-06T01:22:41.764Z,96783.91
2023-05-06T01:25:17.364Z,96781.78
2023-05-06T01:27:43.913Z,96779.69
2023-05-06T01:30:10.607Z,96782.34
2023-05-06T01:32:58.412Z,96790.50
2023-05-06T01:35:35.560Z,96786.81
2023-05-06T01:38:20.674Z,96781.53
2023-05-06T01:40:54.220Z,96762.16
2023-05-06T01:43:22.030Z,96785.50
2023-05-06T01:45:53.467Z,96790.22
2023-05-06T01:48:26.444Z,96791.56
2023-05-06T01:50:54.562Z,96784.94
2023-05-06T01:53:21.317Z,96776.16
2023-05-06T01:55:48.760Z,96795.78
2023-05-06T01:58:16.565Z,96792.34
2023-05-06T02:00:43.022Z,96785.72
2023-05-06T02:03:09.589Z,96795.78
2023-05-06T02:05:36.404Z,96790.22
2023-05-06T02:08:03.687Z,96787.56
2023-05-06T02:10:30.923Z,96772.22
2023-05-06T02:13:02.130Z,96786.00
2023-05-06T02:15:29.264Z,96793.38
2023-05-06T02:17:57.213Z,96788.09
2023-05-06T02:20:25.860Z,96788.09
2023-05-06T02:22:52.384Z,96778.25
2023-05-06T02:25:18.861Z,96785.09
2023-05-06T02:27:45.592Z,96766.78
2023-05-06T02:30:12.481Z,96791.28
2023-05-06T02:32:39.059Z,96764.06
2023-05-06T02:35:05.848Z,96786.53
2023-05-06T02:37:32.863Z,96774.03
2023-05-06T02:40:01.422Z,96796.25
2023-05-06T02:42:27.954Z,96787.22
2023-05-06T02:44:54.491Z,96791.16
2023-05-06T02:47:21.038Z,96800.03
2023-05-06T02:49:47.561Z,96797.66
2023-05-06T02:52:14.008Z,96792.91
2023-05-06T02:54:40.588Z,96793.41
2023-05-06T02:57:07.030Z,96788.19
2023-05-06T02:59:35.532Z,96780.03
2023-05-06T03:02:02.089Z,96786.13
2023-05-06T03:04:28.817Z,96784.53
2023-05-06T03:06:55.838Z,96781.59
2023-05-06T03:09:22.455Z,96782.66
2023-05-06T03:11:49.514Z,96787.94
2023-05-06T03:14:16.963Z,96781.38
2023-05-06T03:16:43.789Z,96789.59
2023-05-06T03:19:10.475Z,96772.66
2023-05-06T03:21:37.428Z,96786.44
2023-05-06T03:24:04.275Z,96783.25
2023-05-06T03:26:31.251Z,96777.72
2023-05-06T03:28:59.129Z,96768.19
2023-05-06T03:31:26.007Z,96778.00
2023-05-06T03:33:53.542Z,96788.69
2023-05-06T03:36:21.978Z,96791.38
2023-05-06T03:38:48.674Z,96801.38
2023-05-06T03:41:15.130Z,96807.13
2023-05-06T03:43:41.718Z,96798.75
2023-05-06T03:46:08.689Z,96793.53
2023-05-06T03:48:36.951Z,96780.53
2023-05-06T03:51:07.009Z,96781.91
2023-05-06T03:53:33.928Z,96792.00
2023-05-06T03:56:02.253Z,96791.44
2023-05-06T03:58:30.315Z,96791.13
2023-05-06T04:01:00.128Z,96783.81
2023-05-06T04:03:27.814Z,96782.00
2023-05-06T04:05:54.846Z,96779.59
2023-05-06T04:08:26.142Z,96778.59
2023-05-06T04:10:55.358Z,96786.28
2023-05-06T04:13:28.778Z,96789.44
2023-05-06T04:15:58.452Z,96794.13
2023-05-06T04:18:31.583Z,96788.03
2023-05-06T04:21:03.493Z,96785.19
2023-05-06T04:23:32.942Z,96796.03
2023-05-06T04:25:59.696Z,96797.34
2023-05-06T04:28:29.154Z,96798.91
2023-05-06T04:30:58.871Z,96786.53
2023-05-06T04:33:34.956Z,96774.03
2023-05-06T04:36:04.956Z,96791.09
2023-05-06T04:38:33.990Z,96800.63
2023-05-06T04:41:00.603Z,96803.06
2023-05-06T04:43:31.124Z,96803.44
2023-05-06T04:46:06.522Z,96813.22
2023-05-06T04:48:35.485Z,96813.75
2023-05-06T04:51:05.430Z,96806.91
2023-05-06T04:53:32.907Z,96812.78
2023-05-06T04:56:02.241Z,96813.09
2023-05-06T04:58:29.923Z,96811.75
2023-05-06T05:00:58.273Z,96816.56
2023-05-06T05:03:25.397Z,96812.88
2023-05-06T05:05:54.578Z,96815.53
2023-05-06T05:08:21.417Z,96815.56
2023-05-06T05:10:48.867Z,96821.66
2023-05-06T05:13:20.959Z,96826.97
2023-05-06T05:15:49.412Z,96824.38
2023-05-06T05:18:16.882Z,96818.31
2023-05-06T05:20:45.512Z,96823.06
2023-05-06T05:23:13.571Z,96830.22
2023-05-06T05:25:42.670Z,96827.09
2023-05-06T05:28:09.231Z,96819.16
2023-05-06T05:30:37.107Z,96820.81
2023-05-06T05:33:05.117Z,96807.03
2023-05-06T05:35:31.933Z,96821.34
2023-05-06T05:37:58.826Z,96821.19
2023-05-06T05:40:26.003Z,96822.19
2023-05-06T05:42:54.457Z,96815.06
2023-05-06T05:45:27.362Z,96827.22
2023-05-06T05:47:54.819Z,96833.59
2023-05-06T05:50:22.545Z,96822.44
2023-05-06T05:52:51.400Z,96830.59
2023-05-06T05:55:18.822Z,96833.81
2023-05-06T05:57:47.040Z,96837.75
2023-05-06T06:00:15.498Z,96820.84
2023-05-06T06:02:45.199Z,96837.50
2023-05-06T06:05:15.104Z,96832.78
2023-05-06T06:07:41.909Z,96838.69
2023-05-06T06:10:08.831Z,96839.94
2023-05-06T06:12:35.518Z,96841.84
2023-05-06T06:15:04.029Z,96832.34
2023-05-06T06:17:31.994Z,96841.06
2023-05-06T06:19:59.649Z,96846.91
2023-05-06T06:22:26.437Z,96836.03
2023-05-06T06:24:56.155Z,96838.41
2023-05-06T06:27:23.360Z,96846.59
2023-05-06T06:29:51.342Z,96847.41
2023-05-06T06:32:17.979Z,96855.09
2023-05-06T06:34:44.563Z,96844.47
2023-05-06T06:37:11.484Z,96861.41
2023-05-06T06:39:38.397Z,96840.28
2023-05-06T06:42:06.954Z,96863.25
2023-05-06T06:44:49.447Z,96860.88
2023-05-06T06:47:15.969Z,96853.22
2023-05-06T06:49:42.434Z,96855.63
2023-05-06T06:52:09.355Z,96860.59
2023-05-06T06:54:37.944Z,96866.47
2023-05-06T06:57:05.996Z,96867.53
2023-05-06T06:59:32.583Z,96872.25
2023-05-06T07:01:59.214Z,96879.91
2023-05-06T07:04:25.891Z,96881.00
2023-05-06T07:06:52.465Z,96874.66
2023-05-06T07:09:18.945Z,96877.03
2023-05-06T07:11:45.760Z,96878.38
2023-05-06T07:14:13.320Z,96886.84
2023-05-06T07:16:40.093Z,96884.75
2023-05-06T07:19:06.712Z,96882.06
2023-05-06T07:21:33.184Z,96878.63
2023-05-06T07:24:00.128Z,96856.16
2023-05-06T07:26:27.172Z,96884.19
2023-05-06T07:28:53.857Z,96882.63
2023-05-06T07:31:21.164Z,96890.56
2023-05-06T07:33:48.135Z,96894.72
2023-05-06T07:36:14.777Z,96895.75
2023-05-06T07:38:41.574Z,96896.91
2023-05-06T07:41:08.063Z,96889.28
2023-05-06T07:43:34.518Z,96897.03
2023-05-06T07:46:04.135Z,96904.75
2023-05-06T07:48:31.049Z,96892.16
2023-05-06T07:50:57.937Z,96908.38
2023-05-06T07:53:24.611Z,96890.59
2023-05-06T07:55:52.518Z,96913.28
2023-05-06T07:58:19.189Z,96911.94
2023-05-06T08:00:45.739Z,96910.34
2023-05-06T08:03:12.262Z,96902.94
2023-05-06T08:05:39.260Z,96912.53
2023-05-06T08:08:05.790Z,96907.09
2023-05-06T08:10:32.310Z,96913.00
2023-05-06T08:12:58.938Z,96914.28
2023-05-06T08:15:25.642Z,96917.97
2023-05-06T08:17:52.721Z,96922.84
2023-05-06T08:20:19.509Z,96925.78
2023-05-06T08:22:46.028Z,96918.88
2023-05-06T08:25:12.703Z,96915.81
2023-05-06T08:27:39.774Z,96909.78
2023-05-06T08:30:06.997Z,96920.13
2023-05-06T08:32:33.603Z,96920.13
2023-05-06T08:35:00.780Z,96918.03
2023-05-06T08:37:27.651Z,96918.31
2023-05-06T08:39:54.282Z,96898.28
2023-05-06T08:42:21.960Z,96919.66
2023-05-06T08:44:51.825Z,96894.06
2023-05-06T08:47:20.842Z,96919.41
2023-05-06T08:49:50.714Z,96923.78
2023-05-06T08:52:18.703Z,96914.81
2023-05-06T08:54:45.962Z,96892.50
2023-05-06T08:57:13.397Z,96914.31
2023-05-06T08:59:41.591Z,96902.03
2023-05-06T09:02:08.513Z,96908.66
2023-05-06T09:04:35.202Z,96907.88
2023-05-06T09:07:01.767Z,96911.56
2023-05-06T09:09:28.689Z,96909.81
2023-05-06T09:11:57.444Z,96904.72
2023-05-06T09:14:24.350Z,96908.50
2023-05-06T09:16:55.160Z,96902.06
2023-05-06T09:19:22.959Z,96896.78
2023-05-06T09:21:50.906Z,96900.84
2023-05-06T09:24:18.081Z,96884.69
2023-05-06T09:26:46.648Z,96904.25
2023-05-06T09:29:13.951Z,96912.16
2023-05-06T09:31:45.879Z,96887.22
2023-05-06T09:34:13.612Z,96913.44
2023-05-06T09:36:40.249Z,96903.66
2023-05-06T09:39:07.550Z,96905.50
2023-05-06T09:41:34.243Z,96909.06
2023-05-06T09:44:02.538Z,96901.66
2023-05-06T09:46:30.007Z,96898.63
2023-05-06T09:48:58.209Z,96898.25
2023-05-06T09:51:27.917Z,96904.44
2023-05-06T09:53:56.305Z,96897.53
2023-05-06T09:56:23.772Z,96902.03
2023-05-06T09:58:52.505Z,96883.69
2023-05-06T10:01:32.557Z,96892.97
2023-05-06T10:04:08.422Z,96869.66
2023-05-06T10:06:37.221Z,96884.56
2023-05-06T10:09:06.221Z,96884.91
2023-05-06T10:11:32.989Z,96893.28
2023-05-06T10:14:01.296Z,96894.09
2023-05-06T10:16:29.099Z,96884.91
2023-05-06T10:18:56.078Z,96885.34
2023-05-06T10:21:27.668Z,96885.28
2023-05-06T10:23:59.492Z,96886.56
2023-05-06T10:26:29.602Z,96880.41
2023-05-06T10:28:56.227Z,96877.16
2023-05-06T10:31:22.798Z,96877.25
2023-05-06T10:33:53.266Z,96874.09
2023-05-06T10:36:25.265Z,96872.97
2023-05-06T10:38:58.595Z,96869.38
2023-05-06T10:41:28.090Z,96871.81
2023-05-06T10:43:59.997Z,96872.56
2023-05-06T10:46:29.985Z,96866.19
2023-05-06T10:49:06.262Z,96859.97
2023-05-06T10:51:39.417Z,96854.88
2023-05-06T10:54:09.372Z,96853.25
2023-05-06T10:56:36.646Z,96852.97
2023-05-06T10:59:11.736Z,96847.66
2023-05-06T11:01:40.145Z,96859.22
2023-05-06T11:04:06.930Z,96856.38
2023-05-06T11:06:35.673Z,96854.31
2023-05-06T11:09:04.312Z,96854.03
2023-05-06T11:12:04.583Z,96847.53
2023-05-06T11:14:36.026Z,96845.47
2023-05-06T11:17:08.998Z,96848.50
2023-05-06T11:19:37.437Z,96832.91
2023-05-06T11:22:05.851Z,96842.03
2023-05-06T11:24:39.453Z,96853.25
2023-05-06T11:27:06.950Z,96817.31
2023-05-06T11:29:33.820Z,96835.53
2023-05-06T11:32:00.353Z,96823.66
2023-05-06T11:34:29.220Z,96851.75
2023-05-06T11:37:04.393Z,96852.16
2023-05-06T11:39:38.727Z,96833.09
2023-05-06T11:42:07.259Z,96844.94
2023-05-06T11:44:35.779Z,96840.34
2023-05-06T11:47:05.788Z,96834.03
2023-05-06T11:49:53.348Z,96846.75
2023-05-06T11:52:20.942Z,96842.19
2023-05-06T11:54:49.612Z,96830.78
2023-05-06T11:57:16.777Z,96835.31
2023-05-06T11:59:43.305Z,96835.97
2023-05-06T12:02:10.634Z,96852.81
2023-05-06T12:04:41.419Z,96846.59
2023-05-06T12:07:09.359Z,96834.78
2023-05-06T12:09:37.826Z,96822.97
2023-05-06T12:12:05.181Z,96830.09
2023-05-06T12:14:32.336Z,96838.41
2023-05-06T12:16:59.149Z,96834.81
2023-05-06T12:19:26.586Z,96843.38
2023-05-06T12:21:53.141Z,96800.41
2023-05-06T12:24:29.924Z,96840.63
2023-05-06T12:26:56.599Z,96814.31
2023-05-06T12:29:23.092Z,96808.28
2023-05-06T12:31:49.626Z,96822.97
2023-05-06T12:34:18.191Z,96824.56
2023-05-06T12:36:46.972Z,96815.50
2023-05-06T12:39:14.366Z,96799.25
2023-05-06T12:41:43.613Z,96809.53
2023-05-06T12:44:38.784Z,96820.59
2023-05-06T12:47:20.084Z,96826.13
2023-05-06T12:49:54.811Z,96825.94
2023-05-06T12:52:27.560Z,96826.81
2023-05-06T12:54:54.119Z,96821.72
2023-05-06T12:57:21.480Z,96814.63
2023-05-06T12:59:48.650Z,96809.63
2023-05-06T13:02:16.150Z,96743.91
2023-05-06T13:04:42.841Z,96793.63
2023-05-06T13:07:09.330Z,96784.06
2023-05-06T13:09:35.943Z,96770.69
2023-05-06T13:12:04.674Z,96800.78
2023-05-06T13:14:31.146Z,96802.97
2023-05-06T13:17:01.008Z,96787.50
2023-05-06T13:19:32.801Z,96787.22
2023-05-06T13:22:00.329Z,96785.38
2023-05-06T13:24:27.271Z,96780.28
2023-05-06T13:26:53.799Z,96780.09
2023-05-06T13:29:20.373Z,96797.00
2023-05-06T13:31:46.903Z,96773.88
2023-05-06T13:34:13.434Z,96781.06
2023-05-06T13:36:39.942Z,96770.88
2023-05-06T13:39:06.340Z,96790.84
2023-05-06T13:41:32.998Z,96786.44
2023-05-06T13:43:59.507Z,96758.84
2023-05-06T13:46:27.288Z,96773.97
2023-05-06T13:48:53.950Z,96764.06
2023-05-06T13:51:20.580Z,96756.50
2023-05-06T13:53:47.068Z,96768.41
2023-05-06T13:56:13.726Z,96770.38
2023-05-06T13:58:40.196Z,96762.59
2023-05-06T14:01:07.469Z,96756.81
2023-05-06T14:03:34.054Z,96747.41
2023-05-06T14:06:01.245Z,96727.38
2023-05-06T14:08:27.765Z,96755.38
2023-05-06T14:10:54.253Z,96732.72
2023-05-06T14:13:20.681Z,96753.47
2023-05-06T14:15:47.382Z,96742.97
2023-05-06T14:18:13.928Z,96740.69
2023-05-06T14:20:40.536Z,96744.69
2023-05-06T14:23:07.072Z,96737.63
2023-05-06T14:25:33.694Z,96749.19
2023-05-06T14:28:00.252Z,96754.97
2023-05-06T14:30:26.813Z,96743.22
2023-05-06T14:32:53.280Z,96760.09
2023-05-06T14:35:19.871Z,96755.59
2023-05-06T14:37:46.456Z,96731.88
2023-05-06T14:40:13.246Z,96744.34
2023-05-06T14:42:40.297Z,96760.53
2023-05-06T14:45:07.453Z,96764.09
2023-05-06T14:47:34.206Z,96742.53
2023-05-06T14:50:00.897Z,96746.88
2023-05-06T14:52:27.661Z,96750.00
2023-05-06T14:54:54.052Z,96760.03
2023-05-06T14:57:20.663Z,96753.53
2023-05-06T14:59:47.254Z,96728.84
2023-05-06T15:02:13.827Z,96748.00
2023-05-06T15:04:40.378Z,96745.00
2023-05-06T15:07:08.370Z,96747.72
2023-05-06T15:09:34.965Z,96720.94
2023-05-06T15:12:02.369Z,96736.34
2023-05-06T15:14:28.963Z,96743.59
2023-05-06T15:16:57.273Z,96730.63
2023-05-06T15:19:24.323Z,96749.72
2023-05-06T15:21:51.028Z,96741.16
2023-05-06T15:24:17.678Z,96745.91
2023-05-06T15:26:44.654Z,96730.00
2023-05-06T15:29:11.178Z,96738.41
2023-05-06T15:31:40.987Z,96742.06
2023-05-06T15:34:09.551Z,96728.59
2023-05-06T15:36:36.500Z,96744.00
2023-05-06T15:39:03.301Z,96740.47
2023-05-06T15:41:34.716Z,96738.31
2023-05-06T15:44:03.397Z,96750.53
2023-05-06T15:46:31.219Z,96737.00
2023-05-06T15:49:20.974Z,96744.22
2023-05-06T15:51:44.672Z,96727.69
2023-05-06T15:54:11.328Z,96734.75
2023-05-06T15:56:41.117Z,96734.13
2023-05-06T15:59:08.632Z,96741.47
2023-05-06T16:01:53.849Z,96748.31
2023-05-06T16:04:22.408Z,96736.34
2023-05-06T16:06:49.495Z,96732.94
2023-05-06T16:09:16.046Z,96723.53
2023-05-06T16:11:42.567Z,96726.78
2023-05-06T16:14:08.979Z,96738.97
2023-05-06T16:16:35.951Z,96742.00
2023-05-06T16:19:02.589Z,96744.81
2023-05-06T16:21:29.067Z,96725.69
2023-05-06T16:23:55.956Z,96722.25
2023-05-06T16:26:22.474Z,96707.38
2023-05-06T16:28:48.854Z,96730.31
2023-05-06T16:31:15.528Z,96727.94
2023-05-06T16:33:42.101Z,96719.69
2023-05-06T16:36:08.929Z,96733.84
2023-05-06T16:38:35.460Z,96713.69
2023-05-06T16:41:02.264Z,96725.75
2023-05-06T16:43:28.709Z,96716.09
2023-05-06T16:45:55.325Z,96735.03
2023-05-06T16:48:21.950Z,96722.19
2023-05-06T16:50:48.602Z,96725.81
2023-05-06T16:53:17.262Z,96727.94
2023-05-06T16:55:48.833Z,96716.84
2023-05-06T16:58:15.807Z,96719.56
2023-05-06T17:00:42.465Z,96715.03
2023-05-06T17:03:09.129Z,96706.25
2023-05-06T17:05:36.463Z,96702.97
2023-05-06T17:08:06.805Z,96715.63
2023-05-06T17:10:33.695Z,96719.03
2023-05-06T17:13:00.308Z,96734.38
2023-05-06T17:15:26.844Z,96696.66
2023-05-06T17:17:53.536Z,96725.84
2023-05-06T17:20:20.336Z,96722.81
2023-05-06T17:22:46.935Z,96714.63
2023-05-06T17:25:13.691Z,96725.59
2023-05-06T17:27:40.357Z,96702.09
2023-05-06T17:30:09.670Z,96726.28
2023-05-06T17:32:36.516Z,96699.72
2023-05-06T17:35:03.360Z,96723.91
2023-05-06T17:37:31.241Z,96708.50
2023-05-06T17:39:57.909Z,96703.94
2023-05-06T17:42:24.379Z,96717.75
2023-05-06T17:44:51.106Z,96719.53
2023-05-06T17:47:17.741Z,96705.13
2023-05-06T17:49:44.355Z,96715.69
2023-05-06T17:52:10.939Z,96722.97
2023-05-06T17:54:38.245Z,96703.41
2023-05-06T17:57:04.728Z,96725.75
2023-05-06T17:59:31.281Z,96725.41
2023-05-06T18:01:57.939Z,96673.59
2023-05-06T18:04:24.423Z,96711.63
2023-05-06T18:06:50.954Z,96724.22
2023-05-06T18:09:17.494Z,96729.50
2023-05-06T18:11:43.953Z,96730.84
2023-05-06T18:14:11.077Z,96718.41
2023-05-06T18:16:37.924Z,96728.31
2023-05-06T18:19:05.179Z,96713.44
2023-05-06T18:21:33.921Z,96717.88
2023-05-06T18:24:10.371Z,96722.28
2023-05-06T18:26:45.338Z,96708.03
2023-05-06T18:29:12.673Z,96724.84
2023-05-06T18:31:39.429Z,96732.53
2023-05-06T18:34:06.038Z,96733.09
2023-05-06T18:36:32.620Z,96740.84
2023-05-06T18:38:59.126Z,96716.06
2023-05-06T18:41:25.713Z,96744.59
2023-05-06T18:43:52.280Z,96745.84
2023-05-06T18:46:18.758Z,96743.22
2023-05-06T18:48:45.377Z,96740.84
2023-05-06T18:51:17.966Z,96744.56
2023-05-06T18:53:44.803Z,96747.88
2023-05-06T18:56:11.969Z,96749.53
2023-05-06T18:58:39.387Z,96740.88
2023-05-06T19:01:10.727Z,96738.78
2023-05-06T19:03:38.428Z,96753.88
2023-05-06T19:06:09.089Z,96761.28
2023-05-06T19:08:37.244Z,96752.31
2023-05-06T19:11:03.974Z,96761.38
2023-05-06T19:13:30.972Z,96766.66
2023-05-06T19:15:57.496Z,96756.88
2023-05-06T19:18:23.966Z,96765.91
2023-05-06T19:20:50.709Z,96754.25
2023-05-06T19:23:17.221Z,96752.69
2023-05-06T19:25:43.688Z,96765.91
2023-05-06T19:28:10.143Z,96768.84
2023-05-06T19:30:36.781Z,96763.56
2023-05-06T19:33:04.146Z,96775.72
2023-05-06T19:35:30.771Z,96761.22
2023-05-06T19:37:57.773Z,96753.25
2023-05-06T19:40:24.348Z,96776.00
2023-05-06T19:42:50.721Z,96782.06
2023-05-06T19:45:19.202Z,96761.41
2023-05-06T19:47:46.463Z,96787.63
2023-05-06T19:50:13.364Z,96772.25
2023-05-06T19:52:40.475Z,96756.88
2023-05-06T19:55:07.657Z,96784.66
2023-05-06T19:57:34.180Z,96771.97
2023-05-06T20:00:05.104Z,96793.09
2023-05-06T20:02:32.601Z,96762.44
2023-05-06T20:05:00.782Z,96781.97
2023-05-06T20:07:27.570Z,96787.81
2023-05-06T20:09:55.860Z,96763.69
2023-05-06T20:12:23.637Z,96792.78
2023-05-06T20:14:50.213Z,96792.28
2023-05-06T20:17:16.702Z,96787.75
2023-05-06T20:19:44.908Z,96796.47
2023-05-06T20:22:11.796Z,96784.25
2023-05-06T20:24:38.336Z,96788.47
2023-05-06T20:27:04.845Z,96793.41
2023-05-06T20:29:31.470Z,96772.50
2023-05-06T20:31:58.367Z,96776.97
2023-05-06T20:34:24.892Z,96783.34
2023-05-06T20:36:51.510Z,96795.25
2023-05-06T20:39:18.055Z,96779.59
2023-05-06T20:41:44.594Z,96793.63
2023-05-06T20:44:11.072Z,96788.63
2023-05-06T20:46:37.530Z,96792.84
2023-05-06T20:49:04.063Z,96796.50
2023-05-06T20:51:30.590Z,96789.16
2023-05-06T20:53:58.944Z,96787.50
2023-05-06T20:56:27.772Z,96788.06
2023-05-06T20:58:55.692Z,96786.97
2023-05-06T21:01:23.627Z,96792.25
2023-05-06T21:03:50.487Z,96793.06
2023-05-06T21:06:18.504Z,96781.88
2023-05-06T21:08:46.220Z,96754.56
2023-05-06T21:11:13.357Z,96761.97
2023-05-06T21:13:40.247Z,96749.44
2023-05-06T21:16:06.784Z,96762.38
2023-05-06T21:18:33.302Z,96788.13
2023-05-06T21:20:59.933Z,96775.66
2023-05-06T21:23:27.627Z,96780.97
2023-05-06T21:25:54.223Z,96783.34
2023-05-06T21:28:20.641Z,96798.13
2023-05-06T21:30:47.210Z,96785.69
2023-05-06T21:33:13.655Z,96791.97
2023-05-06T21:35:40.253Z,96767.59
2023-05-06T21:38:07.083Z,96781.88
2023-05-06T21:40:33.579Z,96776.78
2023-05-06T21:42:59.986Z,96794.47
2023-05-06T21:45:26.759Z,96789.00
2023-05-06T21:47:53.413Z,96786.63
2023-05-06T21:50:20.274Z,96785.31
2023-05-06T21:52:46.832Z,96763.06
2023-05-06T21:55:13.585Z,96773.09
2023-05-06T21:57:40.507Z,96780.81
2023-05-06T22:00:11.810Z,96792.56
2023-05-06T22:18:02.704Z,96807.00
2023-05-06T22:20:30.591Z,96799.47
2023-05-06T22:22:57.187Z,96805.34
2023-05-06T22:25:23.708Z,96802.06
2023-05-06T22:27:50.303Z,96801.91
2023-05-06T22:30:17.117Z,96803.13
2023-05-06T22:32:43.875Z,96787.88
2023-05-06T22:35:10.683Z,96794.78
2023-05-06T22:37:37.398Z,96798.44
2023-05-06T22:40:04.318Z,96800.03
2023-05-06T22:42:30.903Z,96801.06
2023-05-06T22:44:57.350Z,96796.00
2023-05-06T22:47:24.117Z,96785.59
2023-05-06T22:49:50.744Z,96786.94
2023-05-06T22:52:18.990Z,96795.31
2023-05-06T22:54:45.557Z,96788.13
2023-05-06T22:57:12.230Z,96794.16
2023-05-06T22:59:38.818Z,96794.69
2023-05-06T23:02:05.277Z,96795.97
2023-05-06T23:04:31.830Z,96793.13
2023-05-06T23:06:58.264Z,96792.75
2023-05-06T23:09:24.809Z,96788.19
2023-05-06T23:11:51.267Z,96791.03
2023-05-06T23:14:17.859Z,96786.47
2023-05-06T23:16:44.383Z,96780.06
2023-05-06T23:19:11.030Z,96764.63
2023-05-06T23:21:37.541Z,96693.66
2023-05-06T23:24:04.291Z,96743.69
2023-05-06T23:26:30.818Z,96771.53
2023-05-06T23:28:57.311Z,96765.09
2023-05-06T23:31:23.784Z,96778.16
2023-05-06T23:33:50.236Z,96764.16
2023-05-06T23:36:17.432Z,96756.16
2023-05-06T23:38:44.243Z,96763.97
2023-05-06T23:41:12.049Z,96784.34
2023-05-06T23:43:38.502Z,96768.88
2023-05-06T23:46:05.004Z,96777.31
2023-05-06T23:48:31.378Z,96787.91
2023-05-06T23:50:57.853Z,96738.09
2023-05-06T23:53:24.363Z,96755.06
2023-05-06T23:55:50.740Z,96782.38
2023-05-06T23:58:17.386Z,96770.00
